sensor_id;sensor_type;location;lat;lon;timestamp;P1;durP1;ratioP1;P2;durP2;ratioP2
27412;SDS011;14871;52.702;5.230;2022-08-18T00:01:06;9.90;;;6.28;;
27412;SDS011;14871;52.702;5.230;2022-08-18T00:03:34;8.70;;;6.40;;
27412;SDS011;14871;52.702;5.230;2022-08-18T00:06:00;11.30;;;7.00;;
27412;SDS011;14871;52.702;5.230;2022-08-18T00:08:25;14.80;;;6.72;;
27412;SDS011;14871;52.702;5.230;2022-08-18T00:10:53;15.50;;;7.00;;
27412;SDS011;14871;52.702;5.230;2022-08-18T00:13:19;11.20;;;6.78;;
27412;SDS011;14871;52.702;5.230;2022-08-18T00:15:45;12.13;;;6.80;;
27412;SDS011;14871;52.702;5.230;2022-08-18T00:18:11;9.80;;;6.57;;
27412;SDS011;14871;52.702;5.230;2022-08-18T00:20:36;9.95;;;7.10;;
27412;SDS011;14871;52.702;5.230;2022-08-18T00:23:04;11.32;;;7.95;;
27412;SDS011;14871;52.702;5.230;2022-08-18T00:25:30;13.55;;;6.82;;
27412;SDS011;14871;52.702;5.230;2022-08-18T00:27:55;12.60;;;7.13;;
27412;SDS011;14871;52.702;5.230;2022-08-18T00:30:21;11.27;;;7.13;;
27412;SDS011;14871;52.702;5.230;2022-08-18T00:32:48;11.18;;;7.10;;
27412;SDS011;14871;52.702;5.230;2022-08-18T00:37:44;10.90;;;6.85;;
27412;SDS011;14871;52.702;5.230;2022-08-18T00:40:12;11.45;;;6.90;;
27412;SDS011;14871;52.702;5.230;2022-08-18T00:42:52;7.97;;;7.00;;
27412;SDS011;14871;52.702;5.230;2022-08-18T00:45:21;14.05;;;7.43;;
27412;SDS011;14871;52.702;5.230;2022-08-18T00:47:49;11.68;;;7.10;;
27412;SDS011;14871;52.702;5.230;2022-08-18T00:50:37;11.80;;;6.53;;
27412;SDS011;14871;52.702;5.230;2022-08-18T00:53:06;7.78;;;6.45;;
27412;SDS011;14871;52.702;5.230;2022-08-18T00:55:40;8.90;;;7.15;;
27412;SDS011;14871;52.702;5.230;2022-08-18T00:58:11;9.98;;;6.97;;
27412;SDS011;14871;52.702;5.230;2022-08-18T01:00:41;11.85;;;7.20;;
27412;SDS011;14871;52.702;5.230;2022-08-18T01:03:10;8.95;;;7.03;;
27412;SDS011;14871;52.702;5.230;2022-08-18T01:05:39;9.60;;;6.80;;
27412;SDS011;14871;52.702;5.230;2022-08-18T01:08:11;9.07;;;6.28;;
27412;SDS011;14871;52.702;5.230;2022-08-18T01:10:39;9.15;;;6.75;;
27412;SDS011;14871;52.702;5.230;2022-08-18T01:13:06;8.50;;;7.47;;
27412;SDS011;14871;52.702;5.230;2022-08-18T01:15:32;11.07;;;6.72;;
27412;SDS011;14871;52.702;5.230;2022-08-18T01:17:59;11.85;;;6.82;;
27412;SDS011;14871;52.702;5.230;2022-08-18T01:23:30;7.22;;;6.53;;
27412;SDS011;14871;52.702;5.230;2022-08-18T01:25:55;7.38;;;6.45;;
27412;SDS011;14871;52.702;5.230;2022-08-18T01:28:27;12.00;;;7.07;;
27412;SDS011;14871;52.702;5.230;2022-08-18T01:31:04;10.45;;;6.32;;
27412;SDS011;14871;52.702;5.230;2022-08-18T01:33:32;10.32;;;7.15;;
27412;SDS011;14871;52.702;5.230;2022-08-18T01:36:01;8.88;;;7.35;;
27412;SDS011;14871;52.702;5.230;2022-08-18T01:38:40;12.60;;;6.78;;
27412;SDS011;14871;52.702;5.230;2022-08-18T01:41:07;8.40;;;7.35;;
27412;SDS011;14871;52.702;5.230;2022-08-18T01:43:33;11.38;;;6.90;;
27412;SDS011;14871;52.702;5.230;2022-08-18T01:46:00;10.30;;;6.80;;
27412;SDS011;14871;52.702;5.230;2022-08-18T01:48:28;10.20;;;7.85;;
27412;SDS011;14871;52.702;5.230;2022-08-18T01:50:58;9.65;;;7.50;;
27412;SDS011;14871;52.702;5.230;2022-08-18T01:53:25;11.60;;;7.32;;
27412;SDS011;14871;52.702;5.230;2022-08-18T01:55:51;11.30;;;7.13;;
27412;SDS011;14871;52.702;5.230;2022-08-18T01:58:17;9.77;;;7.45;;
27412;SDS011;14871;52.702;5.230;2022-08-18T02:00:46;13.15;;;7.82;;
27412;SDS011;14871;52.702;5.230;2022-08-18T02:03:12;8.50;;;7.00;;
27412;SDS011;14871;52.702;5.230;2022-08-18T02:05:40;8.23;;;6.78;;
27412;SDS011;14871;52.702;5.230;2022-08-18T02:08:10;10.18;;;7.15;;
27412;SDS011;14871;52.702;5.230;2022-08-18T02:10:36;10.32;;;7.50;;
27412;SDS011;14871;52.702;5.230;2022-08-18T02:13:03;9.45;;;7.18;;
27412;SDS011;14871;52.702;5.230;2022-08-18T02:15:29;9.88;;;7.43;;
27412;SDS011;14871;52.702;5.230;2022-08-18T02:17:55;9.45;;;7.20;;
27412;SDS011;14871;52.702;5.230;2022-08-18T02:20:20;11.15;;;7.75;;
27412;SDS011;14871;52.702;5.230;2022-08-18T02:22:46;11.38;;;7.78;;
27412;SDS011;14871;52.702;5.230;2022-08-18T02:25:13;10.00;;;7.53;;
27412;SDS011;14871;52.702;5.230;2022-08-18T02:27:40;10.77;;;7.60;;
27412;SDS011;14871;52.702;5.230;2022-08-18T02:30:07;11.60;;;7.93;;
27412;SDS011;14871;52.702;5.230;2022-08-18T02:32:36;10.55;;;8.50;;
27412;SDS011;14871;52.702;5.230;2022-08-18T02:35:02;8.77;;;7.82;;
27412;SDS011;14871;52.702;5.230;2022-08-18T02:37:30;8.50;;;7.43;;
27412;SDS011;14871;52.702;5.230;2022-08-18T02:39:56;14.38;;;8.95;;
27412;SDS011;14871;52.702;5.230;2022-08-18T02:42:21;11.57;;;8.05;;
27412;SDS011;14871;52.702;5.230;2022-08-18T02:44:47;11.25;;;8.57;;
27412;SDS011;14871;52.702;5.230;2022-08-18T02:47:13;13.55;;;9.43;;
27412;SDS011;14871;52.702;5.230;2022-08-18T02:49:38;11.55;;;8.70;;
27412;SDS011;14871;52.702;5.230;2022-08-18T02:52:04;11.20;;;9.55;;
27412;SDS011;14871;52.702;5.230;2022-08-18T02:54:30;11.82;;;8.68;;
27412;SDS011;14871;52.702;5.230;2022-08-18T02:56:56;10.23;;;8.77;;
27412;SDS011;14871;52.702;5.230;2022-08-18T02:59:23;14.75;;;10.35;;
27412;SDS011;14871;52.702;5.230;2022-08-18T03:01:52;13.55;;;10.38;;
27412;SDS011;14871;52.702;5.230;2022-08-18T03:04:21;14.40;;;10.40;;
27412;SDS011;14871;52.702;5.230;2022-08-18T03:06:55;11.38;;;9.80;;
27412;SDS011;14871;52.702;5.230;2022-08-18T03:09:22;16.13;;;9.70;;
27412;SDS011;14871;52.702;5.230;2022-08-18T03:11:48;15.10;;;10.23;;
27412;SDS011;14871;52.702;5.230;2022-08-18T03:14:14;12.27;;;10.40;;
27412;SDS011;14871;52.702;5.230;2022-08-18T03:16:43;11.20;;;9.15;;
27412;SDS011;14871;52.702;5.230;2022-08-18T03:19:10;13.77;;;10.57;;
27412;SDS011;14871;52.702;5.230;2022-08-18T03:21:38;15.63;;;10.13;;
27412;SDS011;14871;52.702;5.230;2022-08-18T03:24:04;11.50;;;10.30;;
27412;SDS011;14871;52.702;5.230;2022-08-18T03:26:30;14.05;;;10.45;;
27412;SDS011;14871;52.702;5.230;2022-08-18T03:28:57;17.27;;;10.63;;
27412;SDS011;14871;52.702;5.230;2022-08-18T03:31:25;17.30;;;10.65;;
27412;SDS011;14871;52.702;5.230;2022-08-18T03:33:52;15.65;;;10.88;;
27412;SDS011;14871;52.702;5.230;2022-08-18T03:36:20;14.50;;;10.73;;
27412;SDS011;14871;52.702;5.230;2022-08-18T03:38:48;13.95;;;11.27;;
27412;SDS011;14871;52.702;5.230;2022-08-18T03:41:16;17.08;;;10.68;;
27412;SDS011;14871;52.702;5.230;2022-08-18T03:43:43;12.43;;;10.52;;
27412;SDS011;14871;52.702;5.230;2022-08-18T03:46:10;15.05;;;11.30;;
27412;SDS011;14871;52.702;5.230;2022-08-18T03:48:37;12.88;;;10.48;;
27412;SDS011;14871;52.702;5.230;2022-08-18T03:51:09;15.18;;;11.45;;
27412;SDS011;14871;52.702;5.230;2022-08-18T03:53:39;14.68;;;11.07;;
27412;SDS011;14871;52.702;5.230;2022-08-18T03:56:09;15.80;;;10.98;;
27412;SDS011;14871;52.702;5.230;2022-08-18T04:01:13;19.05;;;11.18;;
27412;SDS011;14871;52.702;5.230;2022-08-18T04:03:41;14.07;;;11.48;;
27412;SDS011;14871;52.702;5.230;2022-08-18T04:06:13;13.65;;;11.27;;
27412;SDS011;14871;52.702;5.230;2022-08-18T04:08:40;14.52;;;11.05;;
27412;SDS011;14871;52.702;5.230;2022-08-18T04:11:06;14.70;;;10.75;;
27412;SDS011;14871;52.702;5.230;2022-08-18T04:13:31;16.42;;;10.85;;
27412;SDS011;14871;52.702;5.230;2022-08-18T04:16:00;13.10;;;11.73;;
27412;SDS011;14871;52.702;5.230;2022-08-18T04:18:25;13.65;;;11.10;;
27412;SDS011;14871;52.702;5.230;2022-08-18T04:20:52;12.55;;;11.32;;
27412;SDS011;14871;52.702;5.230;2022-08-18T04:23:18;17.23;;;11.75;;
27412;SDS011;14871;52.702;5.230;2022-08-18T04:25:45;16.25;;;11.25;;
27412;SDS011;14871;52.702;5.230;2022-08-18T04:28:18;12.90;;;11.43;;
27412;SDS011;14871;52.702;5.230;2022-08-18T04:30:44;12.68;;;11.13;;
27412;SDS011;14871;52.702;5.230;2022-08-18T04:33:10;12.95;;;11.65;;
27412;SDS011;14871;52.702;5.230;2022-08-18T04:35:35;14.77;;;11.32;;
27412;SDS011;14871;52.702;5.230;2022-08-18T04:38:01;14.70;;;11.48;;
27412;SDS011;14871;52.702;5.230;2022-08-18T04:40:26;13.50;;;12.10;;
27412;SDS011;14871;52.702;5.230;2022-08-18T04:42:53;13.82;;;11.45;;
27412;SDS011;14871;52.702;5.230;2022-08-18T04:45:18;15.25;;;12.20;;
27412;SDS011;14871;52.702;5.230;2022-08-18T04:47:44;14.68;;;11.80;;
27412;SDS011;14871;52.702;5.230;2022-08-18T04:50:10;15.98;;;11.77;;
27412;SDS011;14871;52.702;5.230;2022-08-18T04:52:36;15.30;;;11.95;;
27412;SDS011;14871;52.702;5.230;2022-08-18T04:55:20;13.50;;;11.65;;
27412;SDS011;14871;52.702;5.230;2022-08-18T04:57:46;16.98;;;11.85;;
27412;SDS011;14871;52.702;5.230;2022-08-18T05:00:11;12.93;;;11.77;;
27412;SDS011;14871;52.702;5.230;2022-08-18T05:02:38;15.70;;;12.35;;
27412;SDS011;14871;52.702;5.230;2022-08-18T05:05:04;15.07;;;13.48;;
27412;SDS011;14871;52.702;5.230;2022-08-18T05:07:30;13.88;;;12.35;;
27412;SDS011;14871;52.702;5.230;2022-08-18T05:09:56;15.52;;;12.40;;
27412;SDS011;14871;52.702;5.230;2022-08-18T05:12:22;15.20;;;12.32;;
27412;SDS011;14871;52.702;5.230;2022-08-18T05:14:47;13.95;;;12.35;;
27412;SDS011;14871;52.702;5.230;2022-08-18T05:17:14;18.55;;;12.90;;
27412;SDS011;14871;52.702;5.230;2022-08-18T05:19:40;16.00;;;13.30;;
27412;SDS011;14871;52.702;5.230;2022-08-18T05:22:08;16.35;;;13.45;;
27412;SDS011;14871;52.702;5.230;2022-08-18T05:24:35;19.83;;;13.65;;
27412;SDS011;14871;52.702;5.230;2022-08-18T05:27:01;16.40;;;13.23;;
27412;SDS011;14871;52.702;5.230;2022-08-18T05:29:28;18.13;;;13.57;;
27412;SDS011;14871;52.702;5.230;2022-08-18T05:32:00;15.43;;;13.82;;
27412;SDS011;14871;52.702;5.230;2022-08-18T05:34:28;17.27;;;13.40;;
27412;SDS011;14871;52.702;5.230;2022-08-18T05:37:10;16.40;;;14.38;;
27412;SDS011;14871;52.702;5.230;2022-08-18T05:40:04;15.25;;;13.60;;
27412;SDS011;14871;52.702;5.230;2022-08-18T05:42:34;15.13;;;12.85;;
27412;SDS011;14871;52.702;5.230;2022-08-18T05:45:02;14.82;;;13.30;;
27412;SDS011;14871;52.702;5.230;2022-08-18T05:47:34;17.65;;;13.43;;
27412;SDS011;14871;52.702;5.230;2022-08-18T05:50:05;16.70;;;13.10;;
27412;SDS011;14871;52.702;5.230;2022-08-18T05:58:22;14.20;;;12.02;;
27412;SDS011;14871;52.702;5.230;2022-08-18T06:00:55;13.70;;;11.10;;
27412;SDS011;14871;52.702;5.230;2022-08-18T06:03:27;12.68;;;10.45;;
27412;SDS011;14871;52.702;5.230;2022-08-18T06:06:00;15.60;;;11.05;;
27412;SDS011;14871;52.702;5.230;2022-08-18T06:08:37;12.68;;;11.48;;
27412;SDS011;14871;52.702;5.230;2022-08-18T06:11:07;13.88;;;11.57;;
27412;SDS011;14871;52.702;5.230;2022-08-18T06:13:40;13.35;;;11.40;;
27412;SDS011;14871;52.702;5.230;2022-08-18T06:16:09;16.25;;;11.43;;
27412;SDS011;14871;52.702;5.230;2022-08-18T06:18:45;12.13;;;10.50;;
27412;SDS011;14871;52.702;5.230;2022-08-18T06:40:45;8.30;;;6.07;;
27412;SDS011;14871;52.702;5.230;2022-08-18T06:43:12;7.97;;;6.10;;
27412;SDS011;14871;52.702;5.230;2022-08-18T06:45:41;8.50;;;6.15;;
27412;SDS011;14871;52.702;5.230;2022-08-18T06:51:01;7.00;;;5.35;;
27412;SDS011;14871;52.702;5.230;2022-08-18T06:58:50;5.22;;;4.72;;
27412;SDS011;14871;52.702;5.230;2022-08-18T07:01:19;8.93;;;4.78;;
27412;SDS011;14871;52.702;5.230;2022-08-18T07:03:51;6.60;;;4.18;;
27412;SDS011;14871;52.702;5.230;2022-08-18T07:08:46;6.10;;;4.32;;
27412;SDS011;14871;52.702;5.230;2022-08-18T07:13:42;7.22;;;4.70;;
27412;SDS011;14871;52.702;5.230;2022-08-18T07:16:17;9.80;;;5.43;;
27412;SDS011;14871;52.702;5.230;2022-08-18T07:18:47;7.10;;;5.20;;
27412;SDS011;14871;52.702;5.230;2022-08-18T07:21:26;8.60;;;5.47;;
27412;SDS011;14871;52.702;5.230;2022-08-18T07:24:01;6.60;;;5.57;;
27412;SDS011;14871;52.702;5.230;2022-08-18T07:26:32;8.75;;;5.35;;
27412;SDS011;14871;52.702;5.230;2022-08-18T07:29:28;7.55;;;5.80;;
27412;SDS011;14871;52.702;5.230;2022-08-18T07:31:58;8.10;;;6.03;;
27412;SDS011;14871;52.702;5.230;2022-08-18T07:34:35;6.53;;;5.82;;
27412;SDS011;14871;52.702;5.230;2022-08-18T07:37:09;6.20;;;5.60;;
27412;SDS011;14871;52.702;5.230;2022-08-18T07:39:44;6.68;;;5.20;;
27412;SDS011;14871;52.702;5.230;2022-08-18T07:44:56;7.65;;;5.30;;
27412;SDS011;14871;52.702;5.230;2022-08-18T07:49:56;7.32;;;3.97;;
27412;SDS011;14871;52.702;5.230;2022-08-18T07:52:30;6.65;;;4.20;;
27412;SDS011;14871;52.702;5.230;2022-08-18T07:57:53;6.07;;;4.20;;
27412;SDS011;14871;52.702;5.230;2022-08-18T08:00:31;8.38;;;4.97;;
27412;SDS011;14871;52.702;5.230;2022-08-18T08:08:28;4.65;;;3.40;;
27412;SDS011;14871;52.702;5.230;2022-08-18T08:13:45;7.13;;;3.55;;
27412;SDS011;14871;52.702;5.230;2022-08-18T08:16:36;6.60;;;3.70;;
27412;SDS011;14871;52.702;5.230;2022-08-18T08:19:35;7.40;;;3.75;;
27412;SDS011;14871;52.702;5.230;2022-08-18T08:30:24;9.20;;;4.07;;
27412;SDS011;14871;52.702;5.230;2022-08-18T08:35:42;7.00;;;3.85;;
27412;SDS011;14871;52.702;5.230;2022-08-18T08:38:37;6.10;;;3.65;;
27412;SDS011;14871;52.702;5.230;2022-08-18T08:41:10;4.07;;;3.40;;
27412;SDS011;14871;52.702;5.230;2022-08-18T08:49:24;3.63;;;3.20;;
27412;SDS011;14871;52.702;5.230;2022-08-18T08:54:58;4.03;;;2.75;;
27412;SDS011;14871;52.702;5.230;2022-08-18T08:57:32;5.35;;;3.15;;
27412;SDS011;14871;52.702;5.230;2022-08-18T09:00:04;6.07;;;3.13;;
27412;SDS011;14871;52.702;5.230;2022-08-18T09:05:26;5.53;;;2.80;;
27412;SDS011;14871;52.702;5.230;2022-08-18T09:13:35;3.78;;;2.05;;
27412;SDS011;14871;52.702;5.230;2022-08-18T09:19:13;5.43;;;2.00;;
27412;SDS011;14871;52.702;5.230;2022-08-18T09:22:04;4.35;;;2.10;;
27412;SDS011;14871;52.702;5.230;2022-08-18T09:24:51;4.38;;;2.47;;
27412;SDS011;14871;52.702;5.230;2022-08-18T09:30:36;6.63;;;2.55;;
27412;SDS011;14871;52.702;5.230;2022-08-18T09:33:15;3.75;;;2.78;;
27412;SDS011;14871;52.702;5.230;2022-08-18T09:35:53;5.13;;;2.78;;
27412;SDS011;14871;52.702;5.230;2022-08-18T09:38:21;3.92;;;2.60;;
27412;SDS011;14871;52.702;5.230;2022-08-18T09:41:24;6.25;;;3.20;;
27412;SDS011;14871;52.702;5.230;2022-08-18T09:44:11;3.78;;;3.22;;
27412;SDS011;14871;52.702;5.230;2022-08-18T09:49:30;3.88;;;3.17;;
27412;SDS011;14871;52.702;5.230;2022-08-18T09:54:53;5.50;;;3.10;;
27412;SDS011;14871;52.702;5.230;2022-08-18T10:10:17;3.53;;;2.33;;
27412;SDS011;14871;52.702;5.230;2022-08-18T10:13:06;4.72;;;2.42;;
27412;SDS011;14871;52.702;5.230;2022-08-18T10:16:01;4.43;;;2.28;;
27412;SDS011;14871;52.702;5.230;2022-08-18T10:23:46;4.05;;;2.20;;
27412;SDS011;14871;52.702;5.230;2022-08-18T10:29:05;5.85;;;3.40;;
27412;SDS011;14871;52.702;5.230;2022-08-18T10:34:38;4.35;;;3.42;;
27412;SDS011;14871;52.702;5.230;2022-08-18T10:39:51;9.32;;;3.35;;
27412;SDS011;14871;52.702;5.230;2022-08-18T10:42:41;4.63;;;2.70;;
27412;SDS011;14871;52.702;5.230;2022-08-18T10:45:35;6.30;;;2.90;;
27412;SDS011;14871;52.702;5.230;2022-08-18T10:50:28;4.47;;;2.03;;
27412;SDS011;14871;52.702;5.230;2022-08-18T11:04:23;7.30;;;2.63;;
27412;SDS011;14871;52.702;5.230;2022-08-18T11:06:50;2.92;;;1.70;;
27412;SDS011;14871;52.702;5.230;2022-08-18T11:09:25;5.80;;;2.08;;
27412;SDS011;14871;52.702;5.230;2022-08-18T11:11:53;6.30;;;2.42;;
27412;SDS011;14871;52.702;5.230;2022-08-18T11:19:45;6.00;;;1.63;;
27412;SDS011;14871;52.702;5.230;2022-08-18T11:22:27;7.28;;;1.92;;
27412;SDS011;14871;52.702;5.230;2022-08-18T11:24:54;5.22;;;2.20;;
27412;SDS011;14871;52.702;5.230;2022-08-18T11:27:22;5.22;;;1.90;;
27412;SDS011;14871;52.702;5.230;2022-08-18T11:29:49;6.75;;;2.10;;
27412;SDS011;14871;52.702;5.230;2022-08-18T11:32:21;4.45;;;1.90;;
27412;SDS011;14871;52.702;5.230;2022-08-18T11:34:48;2.58;;;1.63;;
27412;SDS011;14871;52.702;5.230;2022-08-18T11:48:52;4.93;;;1.80;;
27412;SDS011;14871;52.702;5.230;2022-08-18T11:51:19;5.00;;;1.67;;
27412;SDS011;14871;52.702;5.230;2022-08-18T12:09:15;2.33;;;1.55;;
27412;SDS011;14871;52.702;5.230;2022-08-18T12:11:53;1.90;;;1.40;;
27412;SDS011;14871;52.702;5.230;2022-08-18T12:14:24;2.22;;;1.60;;
27412;SDS011;14871;52.702;5.230;2022-08-18T12:16:52;4.15;;;1.75;;
27412;SDS011;14871;52.702;5.230;2022-08-18T12:19:19;3.55;;;1.60;;
27412;SDS011;14871;52.702;5.230;2022-08-18T12:21:50;4.28;;;1.60;;
27412;SDS011;14871;52.702;5.230;2022-08-18T12:24:19;3.80;;;2.10;;
27412;SDS011;14871;52.702;5.230;2022-08-18T12:26:50;3.15;;;1.83;;
27412;SDS011;14871;52.702;5.230;2022-08-18T12:29:16;3.50;;;1.98;;
27412;SDS011;14871;52.702;5.230;2022-08-18T12:31:43;4.15;;;1.60;;
27412;SDS011;14871;52.702;5.230;2022-08-18T12:34:09;6.68;;;4.78;;
27412;SDS011;14871;52.702;5.230;2022-08-18T12:36:35;3.90;;;1.67;;
27412;SDS011;14871;52.702;5.230;2022-08-18T12:39:00;2.47;;;2.00;;
27412;SDS011;14871;52.702;5.230;2022-08-18T12:41:27;2.45;;;1.42;;
27412;SDS011;14871;52.702;5.230;2022-08-18T12:43:53;3.13;;;1.60;;
27412;SDS011;14871;52.702;5.230;2022-08-18T12:46:19;3.35;;;1.60;;
27412;SDS011;14871;52.702;5.230;2022-08-18T12:48:45;3.00;;;1.63;;
27412;SDS011;14871;52.702;5.230;2022-08-18T12:51:10;2.53;;;1.60;;
27412;SDS011;14871;52.702;5.230;2022-08-18T12:53:37;2.83;;;1.35;;
27412;SDS011;14871;52.702;5.230;2022-08-18T12:56:19;2.65;;;1.38;;
27412;SDS011;14871;52.702;5.230;2022-08-18T12:58:57;3.08;;;1.77;;
27412;SDS011;14871;52.702;5.230;2022-08-18T13:01:25;4.57;;;1.70;;
27412;SDS011;14871;52.702;5.230;2022-08-18T13:03:52;3.88;;;1.60;;
27412;SDS011;14871;52.702;5.230;2022-08-18T13:06:23;2.55;;;1.50;;
27412;SDS011;14871;52.702;5.230;2022-08-18T13:08:50;1.90;;;1.70;;
27412;SDS011;14871;52.702;5.230;2022-08-18T13:11:16;2.80;;;1.90;;
27412;SDS011;14871;52.702;5.230;2022-08-18T13:13:43;4.20;;;1.85;;
27412;SDS011;14871;52.702;5.230;2022-08-18T13:16:09;3.08;;;1.80;;
27412;SDS011;14871;52.702;5.230;2022-08-18T13:18:37;3.83;;;1.70;;
27412;SDS011;14871;52.702;5.230;2022-08-18T13:21:10;3.13;;;1.38;;
27412;SDS011;14871;52.702;5.230;2022-08-18T13:23:37;2.85;;;1.52;;
27412;SDS011;14871;52.702;5.230;2022-08-18T13:26:04;3.13;;;1.60;;
27412;SDS011;14871;52.702;5.230;2022-08-18T13:28:33;3.15;;;1.80;;
27412;SDS011;14871;52.702;5.230;2022-08-18T13:31:00;3.55;;;1.55;;
27412;SDS011;14871;52.702;5.230;2022-08-18T13:33:26;4.20;;;1.80;;
27412;SDS011;14871;52.702;5.230;2022-08-18T13:35:52;3.28;;;1.58;;
27412;SDS011;14871;52.702;5.230;2022-08-18T13:38:18;4.32;;;1.73;;
27412;SDS011;14871;52.702;5.230;2022-08-18T13:40:47;4.03;;;1.80;;
27412;SDS011;14871;52.702;5.230;2022-08-18T13:43:14;2.65;;;1.70;;
27412;SDS011;14871;52.702;5.230;2022-08-18T13:45:41;2.47;;;1.52;;
27412;SDS011;14871;52.702;5.230;2022-08-18T13:48:08;5.80;;;1.95;;
27412;SDS011;14871;52.702;5.230;2022-08-18T13:50:34;3.03;;;1.77;;
27412;SDS011;14871;52.702;5.230;2022-08-18T13:53:04;4.55;;;2.15;;
27412;SDS011;14871;52.702;5.230;2022-08-18T13:55:32;2.83;;;1.60;;
27412;SDS011;14871;52.702;5.230;2022-08-18T13:57:57;2.22;;;1.80;;
27412;SDS011;14871;52.702;5.230;2022-08-18T14:00:24;4.57;;;1.92;;
27412;SDS011;14871;52.702;5.230;2022-08-18T14:02:50;6.80;;;1.95;;
27412;SDS011;14871;52.702;5.230;2022-08-18T14:05:19;4.43;;;2.17;;
27412;SDS011;14871;52.702;5.230;2022-08-18T14:07:45;5.78;;;1.92;;
27412;SDS011;14871;52.702;5.230;2022-08-18T14:10:11;3.80;;;2.20;;
27412;SDS011;14871;52.702;5.230;2022-08-18T14:12:38;2.65;;;1.92;;
27412;SDS011;14871;52.702;5.230;2022-08-18T14:15:06;2.53;;;1.65;;
27412;SDS011;14871;52.702;5.230;2022-08-18T14:17:34;4.00;;;1.85;;
27412;SDS011;14871;52.702;5.230;2022-08-18T14:20:00;3.75;;;1.90;;
27412;SDS011;14871;52.702;5.230;2022-08-18T14:22:45;4.32;;;1.90;;
27412;SDS011;14871;52.702;5.230;2022-08-18T14:25:29;2.30;;;1.67;;
27412;SDS011;14871;52.702;5.230;2022-08-18T14:28:14;4.00;;;1.67;;
27412;SDS011;14871;52.702;5.230;2022-08-18T14:30:42;5.95;;;1.95;;
27412;SDS011;14871;52.702;5.230;2022-08-18T14:33:08;5.50;;;2.05;;
27412;SDS011;14871;52.702;5.230;2022-08-18T14:35:34;2.75;;;1.70;;
27412;SDS011;14871;52.702;5.230;2022-08-18T14:38:01;2.63;;;1.40;;
27412;SDS011;14871;52.702;5.230;2022-08-18T14:40:28;3.00;;;1.77;;
27412;SDS011;14871;52.702;5.230;2022-08-18T14:42:53;4.18;;;1.83;;
27412;SDS011;14871;52.702;5.230;2022-08-18T14:45:19;3.15;;;1.70;;
27412;SDS011;14871;52.702;5.230;2022-08-18T14:47:45;2.58;;;2.13;;
27412;SDS011;14871;52.702;5.230;2022-08-18T14:50:11;3.03;;;1.77;;
27412;SDS011;14871;52.702;5.230;2022-08-18T14:52:40;3.25;;;1.65;;
27412;SDS011;14871;52.702;5.230;2022-08-18T14:55:07;4.25;;;1.77;;
27412;SDS011;14871;52.702;5.230;2022-08-18T14:57:35;3.50;;;1.55;;
27412;SDS011;14871;52.702;5.230;2022-08-18T15:00:08;2.58;;;1.80;;
27412;SDS011;14871;52.702;5.230;2022-08-18T15:02:37;4.50;;;1.95;;
27412;SDS011;14871;52.702;5.230;2022-08-18T15:05:06;2.05;;;1.70;;
27412;SDS011;14871;52.702;5.230;2022-08-18T15:07:33;3.17;;;1.90;;
27412;SDS011;14871;52.702;5.230;2022-08-18T15:10:02;3.88;;;2.35;;
27412;SDS011;14871;52.702;5.230;2022-08-18T15:12:32;4.07;;;1.70;;
27412;SDS011;14871;52.702;5.230;2022-08-18T15:14:58;4.35;;;1.67;;
27412;SDS011;14871;52.702;5.230;2022-08-18T15:17:24;3.17;;;1.83;;
27412;SDS011;14871;52.702;5.230;2022-08-18T15:19:51;4.90;;;1.75;;
27412;SDS011;14871;52.702;5.230;2022-08-18T15:22:17;5.43;;;1.67;;
27412;SDS011;14871;52.702;5.230;2022-08-18T15:25:02;3.83;;;1.80;;
27412;SDS011;14871;52.702;5.230;2022-08-18T15:27:47;3.05;;;1.50;;
27412;SDS011;14871;52.702;5.230;2022-08-18T15:30:13;2.95;;;1.80;;
27412;SDS011;14871;52.702;5.230;2022-08-18T15:32:43;2.60;;;1.60;;
27412;SDS011;14871;52.702;5.230;2022-08-18T15:35:11;4.97;;;2.13;;
27412;SDS011;14871;52.702;5.230;2022-08-18T15:37:41;4.70;;;1.60;;
27412;SDS011;14871;52.702;5.230;2022-08-18T15:40:19;2.47;;;1.50;;
27412;SDS011;14871;52.702;5.230;2022-08-18T15:42:51;3.92;;;1.70;;
27412;SDS011;14871;52.702;5.230;2022-08-18T15:45:26;5.28;;;1.88;;
27412;SDS011;14871;52.702;5.230;2022-08-18T15:47:59;2.90;;;1.65;;
27412;SDS011;14871;52.702;5.230;2022-08-18T15:50:25;3.35;;;1.63;;
27412;SDS011;14871;52.702;5.230;2022-08-18T15:52:55;3.10;;;1.60;;
27412;SDS011;14871;52.702;5.230;2022-08-18T15:55:28;4.97;;;1.50;;
27412;SDS011;14871;52.702;5.230;2022-08-18T15:57:56;3.38;;;1.90;;
27412;SDS011;14871;52.702;5.230;2022-08-18T16:00:23;2.97;;;1.80;;
27412;SDS011;14871;52.702;5.230;2022-08-18T16:02:54;2.28;;;1.80;;
27412;SDS011;14871;52.702;5.230;2022-08-18T16:05:23;4.38;;;1.52;;
27412;SDS011;14871;52.702;5.230;2022-08-18T16:07:51;3.03;;;1.77;;
27412;SDS011;14871;52.702;5.230;2022-08-18T16:10:18;4.82;;;1.77;;
27412;SDS011;14871;52.702;5.230;2022-08-18T16:12:45;2.05;;;1.30;;
27412;SDS011;14871;52.702;5.230;2022-08-18T16:15:12;3.42;;;1.63;;
27412;SDS011;14871;52.702;5.230;2022-08-18T16:17:39;2.97;;;1.88;;
27412;SDS011;14871;52.702;5.230;2022-08-18T16:20:05;3.35;;;1.80;;
27412;SDS011;14871;52.702;5.230;2022-08-18T16:22:32;4.30;;;1.95;;
27412;SDS011;14871;52.702;5.230;2022-08-18T16:24:58;3.17;;;2.05;;
27412;SDS011;14871;52.702;5.230;2022-08-18T16:27:26;4.55;;;2.10;;
27412;SDS011;14871;52.702;5.230;2022-08-18T16:29:53;3.95;;;1.95;;
27412;SDS011;14871;52.702;5.230;2022-08-18T16:32:20;4.65;;;1.73;;
27412;SDS011;14871;52.702;5.230;2022-08-18T16:34:46;2.30;;;1.65;;
27412;SDS011;14871;52.702;5.230;2022-08-18T16:37:11;6.60;;;1.88;;
27412;SDS011;14871;52.702;5.230;2022-08-18T16:39:37;5.78;;;2.20;;
27412;SDS011;14871;52.702;5.230;2022-08-18T16:42:03;3.75;;;1.90;;
27412;SDS011;14871;52.702;5.230;2022-08-18T16:44:30;2.97;;;1.73;;
27412;SDS011;14871;52.702;5.230;2022-08-18T16:46:56;3.67;;;1.83;;
27412;SDS011;14871;52.702;5.230;2022-08-18T16:49:24;4.53;;;1.95;;
27412;SDS011;14871;52.702;5.230;2022-08-18T16:51:50;1.95;;;1.63;;
27412;SDS011;14871;52.702;5.230;2022-08-18T16:54:15;5.10;;;1.85;;
27412;SDS011;14871;52.702;5.230;2022-08-18T16:56:41;3.70;;;1.85;;
27412;SDS011;14871;52.702;5.230;2022-08-18T16:59:07;2.95;;;1.92;;
27412;SDS011;14871;52.702;5.230;2022-08-18T17:01:51;2.13;;;1.55;;
27412;SDS011;14871;52.702;5.230;2022-08-18T17:04:35;3.63;;;1.90;;
27412;SDS011;14871;52.702;5.230;2022-08-18T17:07:01;3.30;;;1.92;;
27412;SDS011;14871;52.702;5.230;2022-08-18T17:09:28;3.60;;;1.85;;
27412;SDS011;14871;52.702;5.230;2022-08-18T17:11:55;3.67;;;1.60;;
27412;SDS011;14871;52.702;5.230;2022-08-18T17:14:21;2.47;;;2.25;;
27412;SDS011;14871;52.702;5.230;2022-08-18T17:16:49;3.60;;;1.70;;
27412;SDS011;14871;52.702;5.230;2022-08-18T17:19:18;2.15;;;1.80;;
27412;SDS011;14871;52.702;5.230;2022-08-18T17:21:44;4.07;;;2.00;;
27412;SDS011;14871;52.702;5.230;2022-08-18T17:24:10;5.25;;;2.15;;
27412;SDS011;14871;52.702;5.230;2022-08-18T17:26:52;4.78;;;2.05;;
27412;SDS011;14871;52.702;5.230;2022-08-18T17:29:36;4.88;;;2.38;;
27412;SDS011;14871;52.702;5.230;2022-08-18T17:32:26;3.53;;;1.88;;
27412;SDS011;14871;52.702;5.230;2022-08-18T17:35:02;2.25;;;1.85;;
27412;SDS011;14871;52.702;5.230;2022-08-18T17:37:32;4.40;;;1.90;;
27412;SDS011;14871;52.702;5.230;2022-08-18T17:40:03;2.58;;;1.88;;
27412;SDS011;14871;52.702;5.230;2022-08-18T17:42:37;2.65;;;2.00;;
27412;SDS011;14871;52.702;5.230;2022-08-18T17:45:04;4.13;;;1.90;;
27412;SDS011;14871;52.702;5.230;2022-08-18T17:47:42;2.33;;;1.50;;
27412;SDS011;14871;52.702;5.230;2022-08-18T17:53:15;4.63;;;1.80;;
27412;SDS011;14871;52.702;5.230;2022-08-18T17:55:44;6.15;;;1.75;;